createdAt,value
2019-04-03T00:01:21.269Z,12.50
2019-04-03T00:03:52.392Z,13.13
2019-04-03T00:06:22.569Z,13.07
2019-04-03T00:08:52.815Z,12.57
2019-04-03T00:11:23.120Z,13.27
2019-04-03T00:13:53.322Z,12.83
2019-04-03T00:16:23.266Z,13.97
2019-04-03T00:18:53.665Z,15.00
2019-04-03T00:21:23.871Z,14.43
2019-04-03T00:23:53.998Z,14.43
2019-04-03T00:26:24.278Z,14.77
2019-04-03T00:28:54.496Z,14.97
2019-04-03T00:31:24.469Z,14.20
2019-04-03T00:33:54.887Z,14.10
2019-04-03T00:36:25.307Z,11.93
2019-04-03T00:38:55.689Z,11.70
2019-04-03T00:41:25.785Z,11.60
2019-04-03T00:43:56.014Z,11.23
2019-04-03T00:46:26.402Z,11.30
2019-04-03T00:48:56.838Z,11.77
2019-04-03T00:51:27.487Z,12.40
2019-04-03T00:53:58.225Z,12.00
2019-04-03T00:56:28.628Z,11.90
2019-04-03T00:58:58.754Z,11.67
2019-04-03T01:01:29.062Z,12.13
2019-04-03T01:03:59.508Z,14.40
2019-04-03T01:06:30.748Z,13.83
2019-04-03T01:09:01.018Z,14.37
2019-04-03T01:11:31.239Z,12.50
2019-04-03T01:14:02.146Z,12.20
2019-04-03T01:16:34.607Z,11.30
2019-04-03T01:19:06.270Z,11.53
2019-04-03T01:21:37.424Z,12.23
2019-04-03T01:24:08.458Z,10.53
2019-04-03T01:26:41.259Z,11.10
2019-04-03T01:29:12.695Z,11.77
2019-04-03T01:31:44.698Z,11.23
2019-04-03T01:34:17.115Z,10.17
2019-04-03T01:36:48.211Z,11.47
2019-04-03T01:39:20.628Z,11.30
2019-04-03T01:41:51.512Z,10.73
2019-04-03T01:44:24.098Z,11.37
2019-04-03T01:46:54.171Z,10.40
2019-04-03T01:49:24.412Z,9.90
2019-04-03T01:51:54.621Z,9.80
2019-04-03T01:54:24.911Z,10.83
2019-04-03T01:56:55.185Z,10.17
2019-04-03T01:59:25.382Z,11.20
2019-04-03T02:01:55.601Z,11.27
2019-04-03T02:04:25.849Z,10.27
2019-04-03T02:06:56.074Z,11.13
2019-04-03T02:09:27.142Z,10.03
2019-04-03T02:11:57.472Z,10.23
2019-04-03T02:14:27.713Z,10.23
2019-04-03T02:16:58.033Z,10.00
2019-04-03T02:19:28.292Z,10.53
2019-04-03T02:21:59.109Z,11.40
2019-04-03T02:24:30.963Z,10.80
2019-04-03T02:27:03.138Z,9.83
2019-04-03T02:29:33.115Z,10.23
2019-04-03T02:32:03.339Z,9.53
2019-04-03T02:34:35.460Z,10.30
2019-04-03T02:37:05.527Z,9.70
2019-04-03T02:39:35.777Z,9.13
2019-04-03T02:42:08.577Z,10.13
2019-04-03T02:44:38.086Z,9.67
2019-04-03T02:47:08.431Z,9.67
2019-04-03T02:49:41.635Z,10.73
2019-04-03T02:52:10.943Z,10.33
2019-04-03T02:54:43.460Z,10.17
2019-04-03T02:57:16.173Z,11.47
2019-04-03T02:59:45.702Z,9.00
2019-04-03T03:02:15.926Z,10.73
2019-04-03T03:04:46.206Z,11.20
2019-04-03T03:07:16.510Z,9.20
2019-04-03T03:09:48.437Z,10.17
2019-04-03T03:12:19.072Z,9.90
2019-04-03T03:14:49.589Z,9.83
2019-04-03T03:17:22.575Z,11.43
2019-04-03T03:19:53.322Z,10.53
2019-04-03T03:22:24.509Z,10.23
2019-04-03T03:24:56.364Z,11.27
2019-04-03T03:27:27.853Z,10.60
2019-04-03T03:30:00.233Z,11.37
2019-04-03T03:32:35.458Z,10.50
2019-04-03T03:35:12.404Z,9.87
2019-04-03T03:37:36.320Z,9.60
2019-04-03T03:40:07.161Z,9.40
2019-04-03T03:42:37.381Z,9.87
2019-04-03T03:45:08.056Z,9.17
2019-04-03T03:47:38.839Z,8.47
2019-04-03T03:50:10.558Z,8.27
2019-04-03T03:52:41.809Z,7.90
2019-04-03T03:55:12.459Z,8.40
2019-04-03T03:57:43.918Z,7.90
2019-04-03T04:00:14.516Z,7.60
2019-04-03T04:02:45.216Z,8.50
2019-04-03T04:05:19.621Z,9.33
2019-04-03T04:07:47.721Z,8.87
2019-04-03T04:10:17.904Z,8.27
2019-04-03T04:12:49.681Z,7.47
2019-04-03T04:15:20.186Z,8.03
2019-04-03T04:17:51.777Z,8.33
2019-04-03T04:20:22.130Z,8.20
2019-04-03T04:22:52.431Z,8.77
2019-04-03T04:25:23.316Z,8.97
2019-04-03T04:27:53.532Z,8.87
2019-04-03T04:30:23.783Z,8.10
2019-04-03T04:32:53.990Z,11.43
2019-04-03T04:35:24.312Z,9.83
2019-04-03T04:37:55.925Z,9.77
2019-04-03T04:40:26.511Z,10.90
2019-04-03T04:42:56.706Z,11.00
2019-04-03T04:45:26.900Z,13.53
2019-04-03T04:47:58.596Z,11.53
2019-04-03T04:50:28.869Z,9.67
2019-04-03T04:52:59.460Z,9.30
2019-04-03T04:55:31.307Z,9.73
2019-04-03T04:58:01.540Z,10.03
2019-04-03T05:00:31.756Z,11.73
2019-04-03T05:03:02.205Z,13.37
2019-04-03T05:05:33.465Z,14.17
2019-04-03T05:08:03.788Z,13.77
2019-04-03T05:10:38.430Z,13.43
2019-04-03T05:13:10.038Z,12.13
2019-04-03T05:15:40.285Z,12.00
2019-04-03T05:18:10.714Z,12.97
2019-04-03T05:20:40.891Z,12.10
2019-04-03T05:23:11.169Z,11.20
2019-04-03T05:25:41.844Z,10.80
2019-04-03T05:28:12.114Z,10.43
2019-04-03T05:30:42.506Z,10.13
2019-04-03T05:33:12.871Z,11.43
2019-04-03T05:35:45.616Z,12.50
2019-04-03T05:38:14.969Z,11.27
2019-04-03T05:40:45.375Z,12.07
2019-04-03T05:43:15.558Z,13.10
2019-04-03T05:45:45.872Z,11.70
2019-04-03T05:48:17.704Z,12.30
2019-04-03T05:50:48.104Z,12.90
2019-04-03T05:53:18.492Z,12.27
2019-04-03T05:55:48.745Z,10.50
2019-04-03T05:58:18.980Z,11.60
2019-04-03T06:00:49.215Z,11.87
2019-04-03T06:03:19.509Z,12.53
2019-04-03T06:05:49.751Z,10.73
2019-04-03T06:08:20.686Z,10.57
2019-04-03T06:10:50.989Z,12.07
2019-04-03T06:13:21.146Z,12.23
2019-04-03T06:15:52.990Z,11.57
2019-04-03T06:18:26.525Z,12.27
2019-04-03T06:20:57.606Z,11.50
2019-04-03T06:23:27.905Z,11.53
2019-04-03T06:26:00.726Z,12.80
2019-04-03T06:28:31.339Z,11.97
2019-04-03T06:31:02.553Z,11.97
2019-04-03T06:33:35.042Z,11.70
2019-04-03T06:36:04.680Z,12.13
2019-04-03T06:38:34.976Z,13.17
2019-04-03T06:41:07.796Z,13.40
2019-04-03T06:43:37.152Z,14.23
2019-04-03T06:46:07.413Z,13.93
2019-04-03T06:48:37.632Z,14.93
2019-04-03T06:51:08.248Z,14.90
2019-04-03T06:53:38.443Z,12.73
2019-04-03T06:56:09.055Z,11.57
2019-04-03T06:58:40.162Z,10.30
2019-04-03T07:01:10.600Z,9.30
2019-04-03T07:03:41.191Z,7.47
2019-04-03T07:06:13.105Z,7.60
2019-04-03T07:08:43.751Z,5.10
2019-04-03T07:11:23.238Z,6.53
2019-04-03T07:13:46.013Z,6.07
2019-04-03T07:16:16.547Z,6.30
2019-04-03T07:18:46.729Z,6.33
2019-04-03T07:21:16.992Z,7.40
2019-04-03T07:23:47.125Z,7.07
2019-04-03T07:26:17.385Z,7.20
2019-04-03T07:28:47.638Z,6.97
2019-04-03T07:31:17.930Z,5.77
2019-04-03T07:33:48.380Z,6.10
2019-04-03T07:36:19.007Z,6.07
2019-04-03T07:38:49.151Z,6.93
2019-04-03T07:41:22.157Z,11.50
2019-04-03T07:43:51.347Z,11.57
2019-04-03T07:46:21.456Z,10.10
2019-04-03T07:48:51.628Z,9.07
2019-04-03T07:51:21.926Z,11.97
2019-04-03T07:53:52.179Z,11.57
2019-04-03T07:56:25.556Z,9.87
2019-04-03T07:58:54.273Z,10.57
2019-04-03T08:01:24.499Z,11.53
2019-04-03T08:03:54.925Z,12.80
2019-04-03T08:06:25.527Z,14.50
2019-04-03T08:09:06.616Z,13.60
2019-04-03T08:11:27.628Z,14.63
2019-04-03T08:13:57.901Z,13.27
2019-04-03T08:16:28.244Z,13.93
2019-04-03T08:18:59.537Z,14.57
2019-04-03T08:21:30.561Z,13.40
2019-04-03T08:24:01.545Z,13.43
2019-04-03T08:26:31.925Z,14.10
2019-04-03T08:29:02.298Z,16.43
2019-04-03T08:31:32.959Z,17.10
2019-04-03T08:34:14.725Z,15.60
2019-04-03T08:36:35.283Z,16.60
2019-04-03T08:39:07.474Z,18.77
2019-04-03T08:41:37.959Z,18.30
2019-04-03T08:44:09.144Z,20.43
2019-04-03T08:46:43.043Z,20.27
2019-04-03T08:49:11.754Z,19.13
2019-04-03T08:51:42.119Z,16.50
2019-04-03T08:54:12.523Z,17.73
2019-04-03T08:56:43.199Z,17.30
2019-04-03T08:59:13.887Z,17.67
2019-04-03T09:01:44.241Z,18.60
2019-04-03T09:04:14.851Z,17.33
2019-04-03T09:06:46.583Z,17.70
2019-04-03T09:09:16.895Z,19.20
2019-04-03T09:11:47.034Z,18.63
2019-04-03T09:14:19.431Z,18.57
2019-04-03T09:16:49.349Z,18.90
2019-04-03T09:19:20.660Z,18.50
2019-04-03T09:21:51.807Z,18.03
2019-04-03T09:24:22.064Z,18.17
2019-04-03T09:26:52.277Z,18.07
2019-04-03T09:29:22.551Z,16.93
2019-04-03T09:31:55.875Z,17.23
2019-04-03T09:34:25.070Z,17.60
2019-04-03T09:36:55.317Z,17.40
2019-04-03T09:39:25.542Z,17.67
2019-04-03T09:41:55.768Z,19.27
2019-04-03T09:44:25.997Z,19.77
2019-04-03T09:46:56.608Z,18.73
2019-04-03T09:49:26.807Z,19.40
2019-04-03T09:51:57.507Z,20.27
2019-04-03T09:54:28.640Z,19.23
2019-04-03T09:57:04.455Z,19.37
2019-04-03T09:59:30.902Z,20.10
2019-04-03T10:02:01.165Z,18.63
2019-04-03T10:04:31.405Z,18.47
2019-04-03T10:07:02.601Z,18.87
2019-04-03T10:09:33.109Z,16.67
2019-04-03T10:12:03.336Z,15.67
2019-04-03T10:14:33.765Z,16.13
2019-04-03T10:17:06.248Z,16.60
2019-04-03T10:19:35.875Z,16.70
2019-04-03T10:22:07.528Z,18.47
2019-04-03T10:24:37.811Z,17.37
2019-04-03T10:27:10.721Z,15.60
2019-04-03T10:29:40.045Z,15.70
2019-04-03T10:32:10.392Z,17.00
2019-04-03T10:34:40.640Z,17.90
2019-04-03T10:37:12.170Z,19.47
2019-04-03T10:39:44.452Z,19.00
2019-04-03T10:42:14.859Z,19.50
2019-04-03T10:44:45.431Z,21.20
2019-04-03T10:47:16.051Z,19.77
2019-04-03T10:49:46.342Z,20.83
2019-04-03T10:52:16.591Z,20.47
2019-04-03T10:54:47.144Z,20.20
2019-04-03T10:57:17.485Z,22.70
2019-04-03T10:59:47.955Z,23.67
2019-04-03T11:02:19.704Z,22.87
2019-04-03T11:04:50.043Z,25.63
2019-04-03T11:07:20.263Z,27.40
2019-04-03T11:09:50.450Z,26.27
2019-04-03T11:12:20.780Z,26.20
2019-04-03T11:14:51.519Z,24.33
2019-04-03T11:17:23.769Z,23.90
2019-04-03T11:19:53.913Z,24.00
2019-04-03T11:22:24.451Z,24.13
2019-04-03T11:24:55.610Z,24.47
2019-04-03T11:27:40.848Z,23.87
2019-04-03T11:29:58.258Z,22.47
2019-04-03T11:32:28.604Z,23.90
2019-04-03T11:34:58.871Z,24.23
2019-04-03T11:37:31.917Z,24.67
2019-04-03T11:40:04.729Z,25.47
2019-04-03T11:42:33.279Z,24.70
2019-04-03T11:45:04.775Z,25.13
2019-04-03T11:47:35.126Z,23.07
2019-04-03T11:50:06.073Z,22.93
2019-04-03T11:52:36.223Z,22.53
2019-04-03T11:55:09.888Z,21.40
2019-04-03T11:57:39.087Z,23.20
2019-04-03T12:00:14.855Z,22.40
2019-04-03T12:02:45.153Z,22.00
2019-04-03T12:05:20.725Z,22.10
2019-04-03T12:07:49.500Z,22.57
2019-04-03T12:10:19.661Z,23.67
2019-04-03T12:12:50.215Z,22.20
2019-04-03T12:15:21.768Z,22.70
2019-04-03T12:17:52.636Z,21.67
2019-04-03T12:20:22.885Z,22.97
2019-04-03T12:22:54.550Z,21.30
2019-04-03T12:25:25.324Z,23.30
2019-04-03T12:27:56.774Z,21.77
2019-04-03T12:30:28.009Z,21.13
2019-04-03T12:32:58.893Z,20.27
2019-04-03T12:35:29.194Z,18.97
2019-04-03T12:37:59.539Z,28.10
2019-04-03T12:40:32.286Z,110.77
2019-04-03T12:43:02.117Z,35.43
2019-04-03T12:45:32.619Z,49.37
2019-04-03T12:48:03.188Z,24.63
2019-04-03T12:50:33.765Z,21.53
2019-04-03T12:53:03.946Z,26.03
2019-04-03T12:55:34.554Z,18.57
2019-04-03T12:58:05.755Z,20.43
2019-04-03T13:00:36.356Z,19.67
2019-04-03T13:03:08.035Z,19.70
2019-04-03T13:05:41.120Z,21.83
2019-04-03T13:08:12.098Z,24.00
2019-04-03T13:10:46.839Z,19.73
2019-04-03T13:13:14.259Z,18.70
2019-04-03T13:15:44.549Z,19.97
2019-04-03T13:18:15.523Z,20.20
2019-04-03T13:20:45.938Z,20.83
2019-04-03T13:23:16.267Z,19.53
2019-04-03T13:25:46.442Z,19.83
2019-04-03T13:28:25.389Z,19.87
2019-04-03T13:30:56.711Z,18.30
2019-04-03T13:33:26.983Z,22.20
2019-04-03T13:35:57.361Z,21.73
2019-04-03T13:38:29.268Z,18.10
2019-04-03T13:40:59.646Z,15.90
2019-04-03T13:43:30.395Z,19.13
2019-04-03T13:46:03.548Z,13.90
2019-04-03T13:48:32.929Z,11.27
2019-04-03T13:51:03.285Z,7.03
2019-04-03T13:53:33.455Z,9.00
2019-04-03T13:56:06.032Z,9.03
2019-04-03T13:58:35.593Z,8.77
2019-04-03T14:01:09.199Z,8.33
2019-04-03T14:03:37.790Z,9.30
2019-04-03T14:06:11.870Z,8.67
2019-04-03T14:08:45.245Z,10.17
2019-04-03T14:11:17.701Z,9.40
2019-04-03T14:13:52.880Z,10.10
2019-04-03T14:16:23.581Z,10.50
2019-04-03T14:19:01.539Z,11.30
2019-04-03T14:21:34.902Z,10.07
2019-04-03T14:24:03.674Z,10.13
2019-04-03T14:26:33.901Z,9.63
2019-04-03T14:29:06.475Z,10.10
2019-04-03T14:31:38.099Z,8.10
2019-04-03T14:34:09.021Z,7.67
2019-04-03T14:36:39.290Z,7.70
2019-04-03T14:39:19.987Z,7.70
2019-04-03T14:41:53.309Z,8.10
2019-04-03T14:44:22.282Z,6.60
2019-04-03T14:46:52.595Z,8.27
2019-04-03T14:49:23.091Z,6.77
2019-04-03T14:51:53.438Z,7.23
2019-04-03T14:54:24.580Z,6.97
2019-04-03T14:57:07.723Z,6.67
2019-04-03T14:59:35.202Z,7.27
2019-04-03T15:02:04.754Z,7.90
2019-04-03T15:04:37.114Z,7.97
2019-04-03T15:07:09.871Z,7.97
2019-04-03T15:09:39.937Z,14.67
2019-04-03T15:12:12.526Z,10.30
2019-04-03T15:14:43.018Z,30.03
2019-04-03T15:17:15.150Z,17.27
2019-04-03T15:19:46.328Z,18.80
2019-04-03T15:22:16.884Z,18.07
2019-04-03T15:24:47.379Z,12.70
2019-04-03T15:27:18.061Z,10.87
2019-04-03T15:29:48.591Z,9.40
2019-04-03T15:32:20.930Z,10.07
2019-04-03T15:34:51.267Z,13.23
2019-04-03T15:37:21.867Z,10.10
2019-04-03T15:39:56.473Z,9.60
2019-04-03T15:42:24.336Z,10.57
2019-04-03T15:44:57.160Z,10.77
2019-04-03T15:47:35.679Z,10.63
2019-04-03T15:49:59.960Z,10.60
2019-04-03T15:52:32.878Z,12.60
2019-04-03T15:55:04.093Z,12.27
2019-04-03T15:57:36.087Z,13.43
2019-04-03T16:00:09.968Z,12.23
2019-04-03T16:02:40.502Z,13.00
2019-04-03T16:05:10.919Z,12.67
2019-04-03T16:07:42.079Z,14.53
2019-04-03T16:10:14.117Z,14.33
2019-04-03T16:12:44.460Z,15.30
2019-04-03T16:15:15.460Z,13.77
2019-04-03T16:17:46.428Z,11.90
2019-04-03T16:20:18.324Z,13.30
2019-04-03T16:22:48.568Z,13.83
2019-04-03T16:25:18.816Z,12.40
2019-04-03T16:27:48.960Z,12.17
2019-04-03T16:30:20.798Z,13.50
2019-04-03T16:32:52.044Z,13.80
2019-04-03T16:35:22.812Z,13.70
2019-04-03T16:37:55.556Z,14.33
2019-04-03T16:40:25.246Z,14.70
2019-04-03T16:42:55.533Z,101.83
2019-04-03T16:45:25.873Z,64.77
2019-04-03T16:47:57.916Z,59.60
2019-04-03T16:50:28.715Z,49.23
2019-04-03T16:52:58.935Z,56.57
2019-04-03T16:55:29.193Z,52.10
2019-04-03T16:57:59.719Z,31.93
2019-04-03T17:00:31.387Z,40.27
2019-04-03T17:03:02.169Z,68.13
2019-04-03T17:05:32.449Z,51.90
2019-04-03T17:08:02.626Z,24.70
2019-04-03T17:10:32.893Z,36.80
2019-04-03T17:13:03.065Z,37.60
2019-04-03T17:15:35.064Z,40.27
2019-04-03T17:18:05.312Z,44.03
2019-04-03T17:20:35.879Z,52.33
2019-04-03T17:23:06.509Z,37.13
2019-04-03T17:25:45.802Z,41.63
2019-04-03T17:28:10.197Z,71.77
2019-04-03T17:30:41.388Z,66.20
2019-04-03T17:33:12.264Z,40.20
2019-04-03T17:35:45.924Z,64.43
2019-04-03T17:38:15.496Z,55.60
2019-04-03T17:40:48.826Z,54.07
2019-04-03T17:43:19.350Z,57.20
2019-04-03T17:45:49.506Z,31.03
2019-04-03T17:48:20.006Z,35.40
2019-04-03T17:50:50.202Z,36.10
2019-04-03T17:53:20.884Z,37.07
2019-04-03T17:55:56.157Z,64.20
2019-04-03T17:58:33.220Z,50.57
2019-04-03T18:01:02.079Z,37.80
2019-04-03T18:03:33.315Z,43.53
2019-04-03T18:06:03.507Z,35.90
2019-04-03T18:08:33.776Z,64.90
2019-04-03T18:11:04.256Z,29.33
2019-04-03T18:13:34.728Z,36.03
2019-04-03T18:16:05.199Z,27.07
2019-04-03T18:18:37.528Z,24.00
2019-04-03T18:21:07.406Z,23.33
2019-04-03T18:23:37.718Z,24.50
2019-04-03T18:26:07.662Z,22.87
2019-04-03T18:28:37.841Z,22.00
2019-04-03T18:31:08.056Z,20.70
2019-04-03T18:33:38.250Z,19.30
2019-04-03T18:36:10.254Z,18.27
2019-04-03T18:38:41.659Z,17.63
2019-04-03T18:41:11.872Z,18.73
2019-04-03T18:43:42.192Z,19.40
2019-04-03T18:46:12.575Z,18.70
2019-04-03T18:48:52.759Z,20.13
2019-04-03T18:51:14.757Z,20.17
2019-04-03T18:53:45.174Z,17.30
2019-04-03T18:56:16.058Z,16.67
2019-04-03T18:58:46.275Z,13.27
2019-04-03T19:01:17.158Z,15.17
2019-04-03T19:03:47.526Z,9.53
2019-04-03T19:06:17.823Z,8.73
2019-04-03T19:08:49.709Z,6.67
2019-04-03T19:11:19.848Z,6.17
2019-04-03T19:13:50.073Z,6.87
2019-04-03T19:16:29.404Z,7.13
2019-04-03T19:18:52.215Z,6.63
2019-04-03T19:21:24.833Z,6.37
2019-04-03T19:23:54.460Z,5.80
2019-04-03T19:26:24.766Z,4.97
2019-04-03T19:28:54.973Z,4.80
2019-04-03T19:31:25.473Z,3.23
2019-04-03T19:33:55.756Z,4.07
2019-04-03T19:36:26.051Z,3.77
2019-04-03T19:38:56.430Z,4.50
2019-04-03T19:41:27.721Z,3.30
2019-04-03T19:44:00.570Z,3.47
2019-04-03T19:46:29.846Z,2.73
2019-04-03T19:49:00.079Z,3.10
2019-04-03T19:51:30.331Z,4.10
2019-04-03T19:54:00.623Z,3.20
2019-04-03T19:56:30.772Z,2.93
2019-04-03T19:59:00.939Z,3.33
2019-04-03T20:01:31.193Z,3.60
2019-04-03T20:04:01.387Z,3.00
2019-04-03T20:06:31.601Z,3.90
2019-04-03T20:09:01.830Z,3.33
2019-04-03T20:11:32.094Z,4.60
2019-04-03T20:14:02.289Z,5.07
2019-04-03T20:16:32.555Z,5.97
2019-04-03T20:19:02.767Z,7.60
2019-04-03T20:21:34.030Z,12.17
2019-04-03T20:24:04.754Z,15.90
2019-04-03T20:26:35.137Z,16.63
2019-04-03T20:29:05.334Z,20.20
2019-04-03T20:31:35.703Z,22.30
2019-04-03T20:34:06.519Z,24.87
2019-04-03T20:36:36.628Z,27.10
2019-04-03T20:39:09.199Z,30.87
2019-04-03T20:41:39.421Z,31.73
2019-04-03T20:44:09.964Z,32.17
2019-04-03T20:46:40.290Z,32.00
2019-04-03T20:49:10.608Z,32.50
2019-04-03T20:51:40.830Z,34.30
2019-04-03T20:54:11.876Z,34.77
2019-04-03T20:56:42.241Z,35.80
2019-04-03T20:59:12.397Z,36.83
2019-04-03T21:01:42.641Z,34.57
2019-04-03T21:04:12.995Z,36.90
2019-04-03T21:06:44.710Z,38.57
2019-04-03T21:09:15.042Z,36.97
2019-04-03T21:11:45.312Z,39.17
2019-04-03T21:14:15.589Z,36.17
2019-04-03T21:16:47.682Z,37.83
2019-04-03T21:19:17.700Z,37.47
2019-04-03T21:21:47.830Z,37.50
2019-04-03T21:24:18.109Z,37.93
2019-04-03T21:26:48.316Z,39.77
2019-04-03T21:29:18.603Z,40.37
2019-04-03T21:31:48.871Z,41.33
2019-04-03T21:34:18.942Z,37.27
2019-04-03T21:36:48.999Z,41.00
2019-04-03T21:39:19.315Z,40.17
2019-04-03T21:41:49.542Z,42.87
2019-04-03T21:44:19.761Z,38.20
2019-04-03T21:46:51.070Z,39.30
2019-04-03T21:49:21.214Z,42.67
2019-04-03T21:51:51.829Z,39.67
2019-04-03T21:54:22.707Z,43.93
2019-04-03T21:56:52.989Z,43.20
2019-04-03T21:59:23.252Z,41.77
2019-04-03T22:01:53.573Z,40.97
2019-04-03T22:04:23.797Z,37.17
2019-04-03T22:06:54.002Z,37.23
2019-04-03T22:09:24.333Z,35.13
2019-04-03T22:11:54.596Z,34.07
2019-04-03T22:14:24.782Z,32.67
2019-04-03T22:16:55.105Z,31.57
2019-04-03T22:19:27.384Z,32.13
2019-04-03T22:21:57.263Z,30.00
2019-04-03T22:24:27.470Z,29.33
2019-04-03T22:26:57.678Z,30.00
2019-04-03T22:29:27.901Z,28.00
2019-04-03T22:31:58.133Z,29.40
2019-04-03T22:34:29.900Z,28.10
2019-04-03T22:37:00.197Z,29.67
2019-04-03T22:39:30.481Z,30.43
2019-04-03T22:42:00.703Z,29.17
2019-04-03T22:44:30.819Z,31.33
2019-04-03T22:47:01.080Z,30.00
2019-04-03T22:49:33.974Z,32.23
2019-04-03T22:52:03.962Z,32.87
2019-04-03T22:54:34.224Z,35.13
2019-04-03T22:57:04.421Z,35.63
2019-04-03T22:59:34.609Z,36.40
2019-04-03T23:02:04.793Z,36.07
2019-04-03T23:04:34.921Z,39.07
2019-04-03T23:07:05.150Z,39.23
2019-04-03T23:09:35.484Z,38.83
2019-04-03T23:12:05.762Z,38.50
2019-04-03T23:14:38.200Z,38.67
2019-04-03T23:17:07.835Z,36.53
2019-04-03T23:19:38.042Z,40.30
2019-04-03T23:22:08.229Z,40.03
2019-04-03T23:24:38.434Z,39.10
2019-04-03T23:27:08.721Z,39.23
2019-04-03T23:29:38.924Z,38.70
2019-04-03T23:32:09.154Z,38.73
2019-04-03T23:34:39.309Z,40.30
2019-04-03T23:37:09.502Z,41.93
2019-04-03T23:39:39.658Z,41.03
2019-04-03T23:42:09.793Z,41.83
2019-04-03T23:44:41.854Z,43.90
2019-04-03T23:47:11.865Z,45.20
2019-04-03T23:49:41.993Z,46.47
2019-04-03T23:52:12.965Z,43.83
2019-04-03T23:54:43.171Z,48.33
2019-04-03T23:57:13.301Z,44.93
2019-04-03T23:59:44.368Z,45.17
